Wednesday, November 22, 2017, 3:56 AM EST
Back to Local

KNYG, Quantico Marine Corps Airfac

Location: MCB Quantico, VA, United States Lat: 38.5
Local Time: 3:56 AM EST ( 8:56 GMT) Lon: -77.3
Time Zone: US/Eastern Elev: 13 ft

Show me the last for .
Show Decoded

2017-11-22 02:56 METAR KNYG 220756Z AUTO 26004KT -RA FEW038 OVC085 12/09 A2996 RMK AO2 RAB41
                 SLP147 P0000 T01170089 $ =
2017-11-22 01:56 METAR KNYG 220656Z AUTO 26004KT FEW070 SCT090 12/08 A2997 RMK AO2 SLP150
                 T01170083 $ =
2017-11-22 00:56 METAR KNYG 220556Z AUTO 23004KT SCT100 11/07 A3000 RMK AO2 SLP159 T01060072
                 10128 20089 58021 $ =
2017-11-21 23:56 METAR KNYG 220456Z AUTO 22005KT FEW095 12/08 A3002 RMK AO2 SLP167 T01170083
                 401780056 $ =
2017-11-21 22:56 METAR KNYG 220356Z AUTO 22004KT FEW060 SCT095 11/08 A3004 RMK AO2 SLP173
                 T01110078 $ =
2017-11-21 20:56 METAR KNYG 220156Z 00000KT 10SM BKN250 11/07 A3007 RMK AO2 SLP184 T01060072 $ =
2017-11-21 19:56 METAR KNYG 220056Z 00000KT 10SM FEW055 BKN250 12/08 A3008 RMK AO2 SLP186 WND WNG
                 T01170078 $ =
2017-11-21 18:56 METAR KNYG 212356Z 21003KT 10SM BKN250 13/08 A3006 RMK AO2 SLP180 WND WNG
                 T01280078 10178 20128 53006 $ =
2017-11-21 17:56 METAR KNYG 212256Z 22007KT 10SM BKN250 14/07 A3005 RMK AO2 SLP178 WND WNG
                 T01440072 $ =
2017-11-21 16:56 METAR KNYG 212156Z 22011KT 10SM FEW080 BKN250 14/07 A3004 RMK AO2 SLP174 WND WNG
                 T01440067 $ =
2017-11-21 15:56 METAR KNYG 212056Z 21013G21KT 10SM FEW050 BKN250 16/07 A3004 RMK AO2 SLP174 WND
                 WNG T01610067 56015 $ =
2017-11-21 14:56 METAR KNYG 211956Z 23014G21KT 10SM FEW060 BKN250 17/07 A3004 RMK AO2 SLP175
                 T01720067 $ =
2017-11-21 13:56 METAR KNYG 211856Z 22009KT 10SM FEW045 BKN250 15/06 A3006 RMK AO2 SLP179
                 T01500056 $ =
2017-11-21 12:56 METAR KNYG 211756Z 22013G19KT 10SM BKN250 16/03 A3009 RMK AO2 SLP189 T01560033
                 10161 20056 58025 $ =
2017-11-21 11:56 METAR KNYG 211656Z 19009KT 10SM BKN250 13/04 A3012 RMK AO2 SLP200 T01330044 $ =
2017-11-21 10:56 METAR KNYG 211556Z 19015KT 10SM BKN250 12/04 A3014 RMK AO2 SLP207 T01220044 $ =
2017-11-21 09:56 METAR KNYG 211456Z 19011KT 10SM SCT250 11/03 A3016 RMK AO2 SLP214 T01110033
                 58001 $ =
2017-11-21 08:56 METAR KNYG 211356Z 21011KT 10SM SCT250 09/00 A3017 RMK AO2 SLP218 T00890000 $ =
2017-11-21 07:56 METAR KNYG 211256Z 21007KT 10SM SCT250 06/M01 A3017 RMK AO2 SLP218 T00611006 $ =
2017-11-21 06:56 METAR KNYG 211156Z 20011KT 10SM SCT200 06/M01 A3016 RMK AO2 SLP215 T00561006
                 10067 20056 55000 $ =
2017-11-21 05:56 METAR KNYG 211056Z AUTO 21011KT CLR 06/M01 A3016 RMK AO2 SLP214 T00611006 $ =
2017-11-21 04:56 METAR KNYG 210956Z AUTO 22007KT CLR 06/M01 A3016 RMK AO2 SLP213 T00561011 $ =

Support USWX by starting your Amazon purchase here.